Chadstone Weather > Observations for 17/10/20

Select Day:



Observations
Time Temp Hum DP Wind Gust Dir Rain >9am Press
C % C kph kph mm hPa
00:00 15.7 97 15.2 0.7 3.6 N 2.7 1018.5
00:10 15.7 97 15.2 0.3 3.6 NNE 2.7 1018.4
00:20 15.7 97 15.2 3.3 7.2 NNE 2.7 1018.2
00:30 15.7 97 15.2 3.2 8.6 N 2.7 1018.3
00:40 15.7 98 15.4 1.1 6.1 NNE 2.7 1018.2
00:50 15.7 98 15.4 0.3 3.6 N 2.7 1018.1
01:00 15.7 98 15.4 0.0 0.0 N 2.7 1017.9
01:10 15.7 98 15.4 0.0 0.0 N 3.0 1017.7
01:20 15.7 98 15.4 0.2 3.6 N 3.0 1017.6
01:30 15.8 98 15.5 1.5 5.0 NNE 3.0 1017.4
01:40 15.7 98 15.4 3.1 8.6 NE 3.0 1017.0
01:50 15.7 98 15.4 2.9 6.1 NNE 3.0 1017.1
02:00 15.8 98 15.5 2.5 6.1 NNE 3.0 1016.9
02:10 15.7 98 15.4 2.4 7.2 NNE 3.0 1016.5
02:20 15.8 98 15.5 2.7 6.1 NNE 3.0 1016.4
02:30 15.7 98 15.4 2.6 6.1 N 3.0 1016.3
02:40 15.7 98 15.4 3.3 7.2 N 3.0 1016.1
02:50 15.7 98 15.4 3.6 11.2 N 3.3 1016.0
03:00 15.7 98 15.4 2.9 11.2 N 3.9 1015.7
03:10 15.8 98 15.5 3.7 7.2 NNE 4.2 1015.6
03:20 15.7 99 15.6 2.0 6.1 NNE 4.5 1015.3
03:30 15.7 99 15.6 2.7 6.1 NNE 4.5 1015.2
03:40 15.7 99 15.6 2.9 7.2 N 4.5 1014.9
03:50 15.7 99 15.6 3.5 7.2 NE 4.8 1014.7
04:00 15.7 99 15.6 4.0 7.2 NNE 4.8 1014.5
04:10 15.7 99 15.6 3.7 8.6 N 4.8 1014.4
04:20 15.7 99 15.6 3.4 8.6 NNE 4.8 1014.3
04:30 15.7 99 15.6 3.7 8.6 N 5.1 1014.1
04:40 15.7 99 15.6 3.5 8.6 NNE 5.1 1013.9
04:50 15.7 99 15.6 2.8 7.2 NE 5.1 1013.9
05:00 15.6 99 15.5 2.8 7.2 NNW 5.1 1013.9
05:10 15.6 99 15.5 3.9 9.7 NNW 5.1 1013.9
05:20 15.6 99 15.5 2.9 7.2 NW 6.3 1013.9
05:30 15.6 99 15.5 3.3 7.2 N 6.6 1013.8
05:40 15.6 99 15.5 2.3 6.1 N 6.6 1013.7
05:50 15.6 99 15.5 3.7 11.2 N 6.6 1013.7
06:00 15.6 99 15.5 3.1 6.1 NNW 6.9 1013.6
06:10 15.6 99 15.5 2.6 6.1 NNW 6.9 1013.7
06:20 15.6 99 15.5 2.2 6.1 NNE 7.2 1013.5
06:30 15.6 99 15.5 3.1 8.6 N 7.2 1013.5
06:40 15.6 99 15.5 4.1 8.6 N 7.2 1013.5
06:50 15.6 99 15.5 2.8 6.1 NNW 7.2 1013.8
07:00 15.6 99 15.5 2.2 6.1 NNW 7.2 1013.7
07:10 15.7 99 15.6 1.9 5.0 N 7.2 1013.7
07:20 15.7 99 15.6 4.4 7.2 NNW 7.2 1013.6
07:30 15.7 99 15.6 4.4 11.2 N 7.2 1013.7
07:40 15.7 99 15.6 3.1 7.2 NW 7.2 1013.8
07:50 15.7 99 15.6 3.3 8.6 NNW 7.2 1013.9
08:00 15.8 99 15.7 2.3 7.2 WNW 7.2 1014.1
08:10 15.8 99 15.7 0.5 5.0 W 7.2 1014.3
08:20 15.9 99 15.8 1.1 7.2 WNW 7.8 1014.2
08:30 16.0 98 15.7 1.5 6.1 NW 7.8 1014.2
08:40 16.0 98 15.7 2.1 5.0 NNW 8.1 1014.2
08:50 16.1 98 15.8 2.4 6.1 NNW 8.1 1014.2
09:00 16.1 98 15.8 2.7 8.6 NNW 8.1 1014.1
09:10 16.2 98 15.9 3.4 7.2 NNW 8.1 1014.1
09:20 16.3 98 16.0 2.3 8.6 NNW 8.1 1014.0
09:30 16.5 98 16.2 4.9 9.7 NW 8.1 1014.1
09:40 16.6 98 16.3 6.3 11.2 WNW 8.1 1014.3
09:50 16.7 98 16.4 4.8 12.2 NNW 8.1 1014.3
10:00 17.0 97 16.5 3.2 7.2 NW 0.0 1014.4
10:10 17.4 97 16.9 3.3 12.2 NW 0.0 1014.5
10:20 17.5 97 17.0 4.8 9.7 NW 0.0 1014.3
10:30 17.4 97 16.9 2.8 9.7 NW 0.0 1014.4
10:40 17.4 97 16.9 2.9 7.2 WNW 0.0 1014.3
10:50 17.2 97 16.7 4.0 13.3 WSW 0.0 1014.4
11:00 17.1 97 16.6 4.5 13.3 W 0.0 1014.6
11:10 17.1 97 16.6 7.6 17.3 S 0.0 1014.7
11:20 17.5 97 17.0 6.0 23.4 NW 0.0 1014.6
11:30 17.6 97 17.1 6.6 23.4 WSW 0.0 1014.5
11:40 17.7 95 16.9 7.1 19.4 W 0.0 1014.6
11:50 17.9 93 16.8 6.5 14.8 SW 0.0 1014.6
12:00 18.1 91 16.6 4.6 15.8 SW 0.0 1014.6
12:10 18.4 88 16.4 7.4 22.0 W 0.0 1014.6
12:20 18.6 86 16.2 8.1 18.4 WNW 0.0 1014.8
12:30 18.8 83 15.9 11.2 27.0 WSW 0.0 1014.6
12:40 18.7 80 15.2 7.6 18.4 WSW 0.0 1014.6
12:50 18.6 79 14.9 7.2 19.4 WSW 0.0 1014.5
13:00 19.1 77 15.0 8.4 33.1 WSW 0.0 1014.5
13:10 19.2 76 14.9 9.8 33.1 SW 0.0 1014.4
13:20 19.1 73 14.2 8.6 23.4 WNW 0.0 1014.5
13:30 19.2 73 14.3 8.3 23.4 WNW 0.0 1014.6
13:40 19.7 70 14.1 9.1 23.4 SW 0.0 1014.6
13:50 19.9 69 14.1 6.9 23.4 WSW 0.0 1014.5
14:00 19.7 66 13.2 8.8 28.1 NW 0.0 1014.5
14:10 20.1 65 13.3 9.5 28.1 WSW 0.0 1014.6
14:20 20.4 64 13.4 6.8 29.5 WSW 0.0 1014.7
14:30 19.8 65 13.0 6.6 20.9 WSW 0.0 1014.8
14:40 19.8 65 13.0 8.0 20.9 WSW 0.0 1014.9
14:50 20.0 64 13.0 9.9 19.4 N 0.0 1014.7
15:00 19.9 65 13.1 9.5 22.0 SW 0.0 1014.5
15:10 19.8 64 12.8 10.5 27.0 WSW 0.0 1014.5
15:20 19.9 64 12.9 6.1 23.4 WSW 0.0 1014.7
15:30 19.9 64 12.9 9.3 25.6 W 0.0 1014.7
15:40 20.0 64 13.0 7.8 18.4 SSW 0.0 1014.8
15:50 20.0 63 12.8 8.7 23.4 SW 0.0 1014.8
16:00 20.0 63 12.8 8.2 27.0 W 0.0 1014.9
16:10 19.9 64 12.9 6.5 19.4 WSW 0.0 1015.0
16:20 19.5 63 12.3 10.2 22.0 NW 0.0 1015.0
16:30 19.2 63 12.0 6.8 19.4 NNW 0.0 1015.0
16:40 19.4 64 12.4 7.5 22.0 NW 0.0 1015.2
16:50 19.1 62 11.7 8.0 19.4 SW 0.0 1015.2
17:00 18.9 61 11.2 5.3 22.0 NNW 0.0 1015.5
17:10 18.4 63 11.2 7.5 18.4 W 0.0 1015.4
17:20 18.4 62 11.0 7.6 28.1 WSW 0.0 1015.7
17:30 18.5 59 10.3 9.1 20.9 WSW 0.0 1015.8
17:40 18.0 59 9.9 6.4 17.3 WNW 0.0 1015.8
17:50 17.7 61 10.1 7.8 34.2 WSW 0.0 1016.0
18:00 17.7 61 10.1 9.3 22.0 WNW 0.0 1016.4
18:10 17.5 62 10.1 7.4 20.9 SW 0.0 1016.6
18:20 17.2 61 9.6 7.7 23.4 WSW 0.0 1016.7
18:30 17.3 60 9.5 7.3 18.4 WSW 0.0 1017.1
18:40 17.3 59 9.2 7.0 20.9 W 0.0 1017.2
18:50 17.2 58 8.9 6.1 18.4 W 0.0 1017.4
19:00 17.0 59 8.9 5.5 15.8 WNW 0.0 1017.6
19:10 16.8 62 9.5 5.7 14.8 W 0.0 1017.7
19:20 16.7 63 9.6 3.8 14.8 WSW 0.0 1017.8
19:30 16.6 63 9.5 2.4 8.6 SW 0.0 1017.9
19:40 16.5 65 9.9 4.8 18.4 SW 0.0 1018.2
19:50 15.8 73 11.0 4.2 13.3 SSW 0.0 1018.4
20:00 15.2 77 11.2 4.6 17.3 WSW 0.0 1018.5
20:10 14.9 80 11.5 3.1 11.2 SSW 0.0 1018.6
20:20 14.8 81 11.6 3.4 13.3 S 0.0 1018.7
20:30 14.6 83 11.8 3.8 17.3 SSW 0.0 1018.7
20:40 14.4 84 11.7 3.1 15.8 WSW 0.0 1018.9
20:50 14.2 84 11.5 4.0 14.8 SSW 0.0 1019.1
21:00 14.0 85 11.5 3.7 12.2 SW 0.0 1019.3
21:10 13.8 86 11.5 3.6 12.2 WSW 0.0 1019.4
21:20 13.6 86 11.3 4.5 13.3 SSE 0.0 1019.7
21:30 13.5 86 11.2 4.0 12.2 SW 0.0 1019.6
21:40 13.6 86 11.3 3.0 13.3 SE 0.0 1019.9
21:50 13.5 86 11.2 3.9 13.3 S 0.0 1019.9
22:00 13.3 86 11.0 5.0 19.4 SW 0.0 1019.9
22:10 13.3 86 11.0 4.4 14.8 S 0.0 1020.0
22:20 13.4 85 10.9 3.0 13.3 S 0.0 1020.0
22:30 13.4 84 10.8 3.3 12.2 SE 0.0 1020.1
22:40 13.3 81 10.1 4.6 13.3 SSW 0.0 1020.1
22:50 13.2 80 9.8 6.3 23.4 SW 0.0 1020.2
23:00 13.0 80 9.6 3.5 20.9 SSW 0.0 1020.2
23:10 13.1 80 9.7 3.1 11.2 SW 0.0 1020.2
23:20 13.1 81 9.9 3.8 12.2 SW 0.0 1020.3
23:30 13.2 80 9.8 5.0 14.8 SW 0.0 1020.4
23:40 13.2 78 9.5 4.8 17.3 S 0.0 1020.4
23:50 13.2 77 9.3 4.3 14.8 SSE 0.0 1020.5